Open Full Screen Window  High Contrast Mode
Wind Gusting 15 knots
10
July 23, 2014 2:15 PM EDT
Weather Information
Wind Direction
  310 °
Wind Speed
  10 kt (12 mph)
Wind Gust
  15 kt (17 mph)
Altimeter
30.10 in
Visibility
10 SM
Temperature
23° C
73° F
Dewpoint
12° C
54° F
Humidity
50%
1hr Rain Fall
00.00 in.
24hr Rain Fall
00.00 in.
Sky Condition
Overcast @ 4,600 ft
Scattered @ 3,300 ft
VFR

METAR KIKW 231815Z AUTO 31010G15KT 10SM SCT033 OVC046 23/12 A3010 RMK AO2 T02310124

*Background is not an actual portrayal of the airport.